Nearby METAR Reports

 

KPAO - Palo Alto, California, USA
Distance from KPAO: NNW 0nm, 0mi
Updated: Sun, 25-Sep-2022 8:47pm PDT
NOT Current
Sky Clear
Sky Clear
 Wind from NNW
Wind: NNW 9 mph , 15 km/h
Temperature: 63°F , 17°C
Dew Point: 57°F , 14°C
Humidity: 83%
Barometer: 30.00 inHg , 1015.9 hPa
Clouds: Sky Clear
Visibility: 10 miles , 16 km
2022/09/26 03:47 KPAO 260347Z 33008KT 10SM SKC 17/14 A3000 RMK LAST
KSQL - San Carlos Airpo, California, USA
Distance from KPAO: WNW 7nm, 8mi
Updated: Mon, 26-Sep-2022 2:55am PDT
Overcast
Overcast
 Wind from calm
Wind: Calm
Temperature: 57°F , 14°C
Dew Point: 55°F , 13°C
Humidity: 94%
Barometer: 30.00 inHg , 1015.9 hPa
Clouds: Overcast
Visibility: 10 miles , 16 km
Cloud details: Overcast 1300 ft
2022/09/26 09:55 KSQL 260955Z AUTO 00000KT 10SM OVC013 14/13 A3000 RMK AO2
 
KSJC - San Jose, California, USA
Distance from KPAO: ESE 11nm, 13mi
Updated: Mon, 26-Sep-2022 2:53am PDT
Overcast
Overcast
 Wind from N
Wind: N 5 mph , 7 km/h
Temperature: 61°F , 16°C
Dew Point: 57°F , 14°C
Humidity: 88%
Barometer: 29.99 inHg , 1015.6 hPa
Clouds: Overcast
Visibility: 10 miles , 16 km
Cloud details: Overcast 1100 ft
2022/09/26 09:53 KSJC 260953Z AUTO 36004KT 10SM OVC011 16/14 A2999 RMK AO2 SLP154 T01610139 $
KHWD - Hayward, California, USA
Distance from KPAO: N 12nm, 14mi
Updated: Mon, 26-Sep-2022 2:54am PDT
Overcast
Overcast
 Wind from NNW
Wind: NNW 5 mph , 7 km/h
Temperature: 59°F , 15°C
Dew Point: 55°F , 13°C
Humidity: 88%
Barometer: 29.99 inHg , 1015.6 hPa
Clouds: Overcast
Visibility: 10 miles , 16 km
Cloud details: Overcast 1000 ft
2022/09/26 09:54 KHWD 260954Z 33004KT 10SM OVC010 15/13 A2999 RMK AO2 SLP163 T01500128
 
KSFO - San Francisco, California, USA
Distance from KPAO: NW 16nm, 18mi
Updated: Mon, 26-Sep-2022 2:56am PDT
Scattered
Scattered
 Wind from WNW
Wind: WNW 6 mph , 9 km/h
Temperature: 57°F , 14°C
Dew Point: 55°F , 13°C
Humidity: 94%
Barometer: 29.99 inHg , 1015.6 hPa
Clouds: Scattered
Visibility: 10 miles , 16 km
Cloud details: Few Clouds 400 ft
Scattered 900 ft
2022/09/26 09:56 KSFO 260956Z 29005KT 10SM FEW004 SCT009 14/13 A2999 RMK AO2 SLP155 T01440128
KRHV - San Jose/Reid, California, USA
Distance from KPAO: ESE 16nm, 18mi
Updated: Sun, 25-Sep-2022 9:57pm PDT
NOT Current
Sky Clear
Sky Clear
 Wind from WNW
Wind: WNW 6 mph , 9 km/h
Temperature: 64°F , 18°C
Dew Point: 57°F , 14°C
Humidity: 78%
Barometer: 30.01 inHg , 1016.3 hPa
Clouds: Sky Clear
Visibility: 10 miles , 16 km
2022/09/26 04:57 KRHV 260457Z 30005KT 10SM SKC 18/14 A3001 RMK LAST
 
KOAK - Oakland, California, USA
Distance from KPAO: NNW 16nm, 18mi
Updated: Mon, 26-Sep-2022 2:53am PDT
Broken
Broken
 Wind from WNW
Wind: WNW 7 mph , 11 km/h
Temperature: 59°F , 15°C
Dew Point: 55°F , 13°C
Humidity: 88%
Barometer: 29.99 inHg , 1015.6 hPa
Clouds: Broken
Visibility: 10 miles , 16 km
Cloud details: Broken 800 ft
Broken 1000 ft
2022/09/26 09:53 KOAK 260953Z 30006KT 10SM BKN008 BKN010 15/13 A2999 RMK AO2 SLP156 T01500128
KHAF - Half Moon Bay, California, USA
Distance from KPAO: W 19nm, 22mi
Updated: Mon, 26-Sep-2022 2:55am PDT
Overcast
Overcast
 
Temperature: 59°F , 15°C
Dew Point: 57°F , 14°C
Humidity: 94%
Barometer: 30.00 inHg , 1015.9 hPa
Clouds: Overcast
Visibility: 9 miles , 14 km
Cloud details: Overcast 800 ft
2022/09/26 09:55 KHAF 260955Z AUTO 9SM OVC008 15/14 A3000 RMK AO2
 
KLVK - Livermore, California, USA
Distance from KPAO: NE 20nm, 23mi
Updated: Mon, 26-Sep-2022 2:53am PDT
Clear
Clear
 Wind from NW
Wind: NW 6 mph , 9 km/h
Temperature: 57°F , 14°C
Dew Point: 55°F , 13°C
Humidity: 94%
Barometer: 29.97 inHg , 1014.9 hPa
Clouds: Clear
Visibility: 9 miles , 14 km
2022/09/26 09:53 KLVK 260953Z AUTO 31005KT 9SM CLR 14/13 A2997 RMK AO2 SLP144 T01440128
KC83 - Byron, California, USA
Distance from KPAO: NE 32nm, 40mi
Updated: Mon, 26-Sep-2022 2:55am PDT
Clear
Clear
 Wind from calm
Wind: Calm
Temperature: 66°F , 19°C
Dew Point: 59°F , 15°C
Humidity: 78%
Barometer: 29.92 inHg , 1013.2 hPa
Clouds: Clear
Visibility: 10 miles , 16 km
2022/09/26 09:55 KC83 260955Z AUTO 00000KT 10SM CLR 19/15 A2992 RMK AO2
 
KCCR - Concord, California, USA
Distance from KPAO: N 33nm, 37mi
Updated: Mon, 26-Sep-2022 2:53am PDT
Clear
Clear
 Wind from WNW
Wind: WNW 3 mph , 6 km/h
Temperature: 59°F , 15°C
Dew Point: 54°F , 12°C
Humidity: 82%
Barometer: 29.96 inHg , 1014.6 hPa
Clouds: Clear
Visibility: 10 miles , 16 km
2022/09/26 09:53 KCCR 260953Z AUTO 29003KT 10SM CLR 15/12 A2996 RMK AO2 SLP132 T01500117
KWVI - Watsonville, California, USA
Distance from KPAO: SSE 35nm, 40mi
Updated: Mon, 26-Sep-2022 2:53am PDT
Mist, Overcast
Mist, Overcast
 Wind from calm
Wind: Calm
Temperature: 55°F , 13°C
Dew Point: 55°F , 13°C
Humidity: 100%
Barometer: 30.00 inHg , 1015.9 hPa
Summary: Mist
Clouds: Overcast
Visibility: 5 miles , 8 km
Cloud details: Overcast 300 ft
2022/09/26 09:53 KWVI 260953Z AUTO 00000KT 5SM BR OVC003 13/13 A3000 RMK AO2 SLP157 T01280128
 
KAPC - Napa, California, USA
Distance from KPAO: N 46nm, 53mi
Updated: Mon, 26-Sep-2022 2:54am PDT
Overcast
Overcast
 Wind from W
Wind: W 8 mph , 13 km/h
Temperature: 57°F , 14°C
Dew Point: 54°F , 12°C
Humidity: 88%
Barometer: 29.98 inHg , 1015.2 hPa
Clouds: Overcast
Visibility: 10 miles , 16 km
Cloud details: Overcast 500 ft
2022/09/26 09:54 KAPC 260954Z AUTO 27007KT 10SM OVC005 14/12 A2998 RMK AO2 SLP143 T01390122
KDVO - Novato/Gnoss Fld, California, USA
Distance from KPAO: NNW 46nm, 53mi
Updated: Mon, 26-Sep-2022 2:55am PDT
Overcast
Overcast
 Wind from calm
Wind: Calm
Temperature: 57°F , 14°C
Dew Point: 55°F , 13°C
Humidity: 94%
Barometer: 29.99 inHg , 1015.6 hPa
Clouds: Overcast
Visibility: 10 miles , 16 km
Cloud details: Overcast 800 ft
2022/09/26 09:55 KDVO 260955Z AUTO 00000KT 10SM OVC008 14/13 A2999 RMK AO2
 
KCVH - Hollister Muni, California, USA
Distance from KPAO: SE 48nm, 55mi
Updated: Mon, 26-Sep-2022 2:55am PDT
Mist, Overcast
Mist, Overcast
 Wind from calm
Wind: Calm
Temperature: 57°F , 14°C
Dew Point: 55°F , 13°C
Humidity: 94%
Barometer: 30.00 inHg , 1015.9 hPa
Summary: Mist
Clouds: Overcast
Visibility: 5 miles , 8 km
Cloud details: Overcast 300 ft
2022/09/26 09:55 KCVH 260955Z AUTO 00000KT 5SM BR OVC003 14/13 A3000 RMK A01
KSUU - Travis Afb/Fairf, California, USA
Distance from KPAO: ENE 49nm, 56mi
Updated: Mon, 26-Sep-2022 12:55am PDT
NOT Current
Clear
Clear
 Wind from SW
Wind: SW 23 mph , 37 km/h
Temperature: 59°F , 15°C
Dew Point: 54°F , 12°C
Humidity: 82%
Barometer: 29.90 inHg , 1012.5 hPa
Clouds: Clear
Visibility: 10 miles , 16 km
2022/09/26 07:55 KSUU 260755Z AUTO 22020KT 10SM CLR 15/12 A2990 RMK AO2 PK WND 22027/40 SLP131 T01510119 403230143 $
 
KSCK - Stockton, California, USA
Distance from KPAO: ENE 49nm, 56mi
Updated: Mon, 26-Sep-2022 2:55am PDT
Clear
Clear
 Wind from NNW
Wind: NNW 6 mph , 9 km/h
Temperature: 64°F , 18°C
Dew Point: 55°F , 13°C
Humidity: 73%
Barometer: 29.92 inHg , 1013.2 hPa
Clouds: Clear
Visibility: 10 miles , 16 km
2022/09/26 09:55 KSCK 260955Z AUTO 33005KT 10SM CLR 18/13 A2992 RMK AO2 SLP130 T01780133 $
KO69 - Petaluma, California, USA
Distance from KPAO: W 53nm, 61mi
Updated: Mon, 26-Sep-2022 2:55am PDT
Mist, Overcast
Mist, Overcast
 Wind from varies
Wind: varies 3 mph , 6 km/h
Temperature: 54°F , 12°C
Dew Point: 54°F , 12°C
Humidity: 100%
Barometer: 30.00 inHg , 1015.9 hPa
Summary: Mist
Clouds: Overcast
Visibility: 2 1/2 miles , 4 km
Cloud details: Overcast 300 ft
2022/09/26 09:55 KO69 260955Z AUTO VRB03KT 2 1/2SM BR OVC003 12/12 A3000 RMK A01
 
KSNS - Salinas, California, USA
Distance from KPAO: SSE 54nm, 62mi
Updated: Mon, 26-Sep-2022 2:53am PDT
Overcast
Overcast
 Wind from WNW
Wind: WNW 3 mph , 6 km/h
Temperature: 61°F , 16°C
Dew Point: 55°F , 13°C
Humidity: 83%
Barometer: 29.99 inHg , 1015.6 hPa
Clouds: Overcast
Visibility: 10 miles , 16 km
Cloud details: Overcast 600 ft
2022/09/26 09:53 KSNS 260953Z AUTO 30003KT 10SM OVC006 16/13 A2999 RMK AO2 SLP165 T01610133 TSNO
KMRY - Monterey, California, USA
Distance from KPAO: SSE 54nm, 62mi
Updated: Mon, 26-Sep-2022 2:54am PDT
Overcast
Overcast
 Wind from NW
Wind: NW 5 mph , 7 km/h
Temperature: 57°F , 14°C
Dew Point: 55°F , 13°C
Humidity: 94%
Barometer: 30.00 inHg , 1015.9 hPa
Clouds: Overcast
Visibility: 7 miles , 11 km
Cloud details: Overcast 300 ft
2022/09/26 09:54 KMRY 260954Z AUTO 31004KT 7SM OVC003 14/13 A3000 RMK AO2 SLP170 T01390133
 
KVCB - Vacaville, California, USA
Distance from KPAO: NE 55nm, 63mi
Updated: Mon, 26-Sep-2022 2:53am PDT
Clear
Clear
 Wind from SSW
Wind: SSW 8 mph , 13 km/h
Temperature: 64°F , 18°C
Dew Point: 54°F , 12°C
Humidity: 68%
Barometer: 29.91 inHg , 1012.9 hPa
Clouds: Clear
Visibility: 10 miles , 16 km
2022/09/26 09:53 KVCB 260953Z AUTO 21007KT 10SM CLR 18/12 A2991 RMK AO2 SLP125 T01780117
KMOD - Modesto, California, USA
Distance from KPAO: E 56nm, 64mi
Updated: Mon, 26-Sep-2022 2:53am PDT
Clear
Clear
 Wind from NNW
Wind: NNW 5 mph , 7 km/h
Temperature: 68°F , 20°C
Dew Point: 52°F , 11°C
Humidity: 56%
Barometer: 29.91 inHg , 1012.9 hPa
Clouds: Clear
Visibility: 10 miles , 16 km
2022/09/26 09:53 KMOD 260953Z AUTO 33004KT 10SM CLR 20/11 A2991 RMK AO2 SLP126 T02000111
 
KEDU - Davis, California, USA
Distance from KPAO: NE 66nm, 76mi
Updated: Thu, 22-Sep-2022 7:00pm PDT
NOT Current
Clear
Clear
 Wind from calm
Wind: Calm
Temperature: 75°F , 24°C
Dew Point: 50°F , 10°C
Humidity: 41%
Barometer: 29.96 inHg , 1014.6 hPa
Clouds: Clear
Visibility: 10 miles , 16 km
2022/09/23 02:00 KEDU 230200Z AUTO 00000KT 10SM CLR 24/10 A2996 RMK AO1
KSAC - Sacramento, California, USA
Distance from KPAO: NE 70nm, 81mi
Updated: Mon, 26-Sep-2022 2:53am PDT
Clear
Clear
 Wind from S
Wind: S 6 mph , 9 km/h
Temperature: 63°F , 17°C
Dew Point: 55°F , 13°C
Humidity: 77%
Barometer: 29.91 inHg , 1012.9 hPa
Clouds: Clear
Visibility: 10 miles , 16 km
2022/09/26 09:53 KSAC 260953Z AUTO 19005KT 10SM CLR 17/13 A2991 RMK AO2 SLP129 T01670133
 
KSTS - Santa Rosa, California, USA
Distance from KPAO: NW 71nm, 82mi
Updated: Mon, 26-Sep-2022 2:53am PDT
Mist, Overcast
Mist, Overcast
 Wind from calm
Wind: Calm
Temperature: 54°F , 12°C
Dew Point: 54°F , 12°C
Humidity: 100%
Barometer: 29.99 inHg , 1015.6 hPa
Summary: Mist
Clouds: Overcast
Visibility: 4 miles , 6 km
Cloud details: Overcast 200 ft
2022/09/26 09:53 KSTS 260953Z AUTO 00000KT 4SM BR OVC002 12/12 A2999 RMK AO2 SLP149 T01220117
KMHR - Mather Field, California, USA
Distance from KPAO: ENE 76nm, 88mi
Updated: Mon, 26-Sep-2022 2:55am PDT
Clear
Clear
 Wind from S
Wind: S 6 mph , 9 km/h
Temperature: 61°F , 16°C
Dew Point: 55°F , 13°C
Humidity: 83%
Barometer: 29.91 inHg , 1012.9 hPa
Clouds: Clear
Visibility: 10 miles , 16 km
2022/09/26 09:55 KMHR 260955Z AUTO 19005KT 10SM CLR 16/13 A2991 RMK A01
 
KSMF - Sacramento/Metro, California, USA
Distance from KPAO: NE 78nm, 90mi
Updated: Mon, 26-Sep-2022 2:53am PDT
Clear
Clear
 Wind from SSE
Wind: SSE 10 mph , 17 km/h
Temperature: 64°F , 18°C
Dew Point: 54°F , 12°C
Humidity: 68%
Barometer: 29.90 inHg , 1012.5 hPa
Clouds: Clear
Visibility: 10 miles , 16 km
2022/09/26 09:53 KSMF 260953Z 16009KT 10SM CLR 18/12 A2990 RMK AO2 SLP124 T01780122
KMCC - Mcclellan Afb, California, USA
Distance from KPAO: NE 80nm, 92mi
Updated: Mon, 26-Sep-2022 2:55am PDT

 Wind from S
Wind: S 8 mph , 13 km/h
Temperature: 64°F , 18°C
Dew Point: 55°F , 13°C
Humidity: 73%
Barometer: 29.91 inHg , 1012.9 hPa
Visibility: 10 miles , 16 km
2022/09/26 09:55 KMCC 260955Z AUTO 17007KT 10SM 18/13 A2991 RMK AO2
 
KNKX - Miramar MCAS (Joe Foss Field) Airport, California, USA
Distance from KPAO: SE 368nm, 423mi
Updated: Mon, 26-Sep-2022 1:55am PDT
Clear
Clear
 Wind from NNW
Wind: NNW 3 mph , 6 km/h
Temperature: 66°F , 19°C
Dew Point: 64°F , 18°C
Humidity: 94%
Barometer: 29.92 inHg , 1013.2 hPa
Clouds: Clear
Visibility: 10 miles , 16 km
2022/09/26 08:55 KNKX 260855Z AUTO 34003KT 10SM CLR 19/18 A2992 RMK AO2 SLP125 T01940178 58010
KMYF - Montgomery-Gibbs Executive Airport, California, USA
Distance from KPAO: SE 371nm, 427mi
Updated: Mon, 26-Sep-2022 2:53am PDT
Clear
Clear
 Wind from NW
Wind: NW 5 mph , 7 km/h
Temperature: 70°F , 21°C
Dew Point: 64°F , 18°C
Humidity: 83%
Barometer: 29.91 inHg , 1012.9 hPa
Clouds: Clear
Visibility: 10 miles , 16 km
2022/09/26 09:53 KMYF 260953Z AUTO 32004KT 10SM CLR 21/18 A2991 RMK AO2 SLP122 T02060178